Terminal Aerodrome Forecast
Issued by NWS Grand Rapids, MI

Home | Current Version | Previous Version | Text Only | Print | Product List | Glossary On
Versions: 1 2 3 4 5 6 7 8 9 10 11 12 13 14 15 16 17 18 19 20 21 22 23
000
FTUS43 KGRR 230900 AAA
TAFGRR
TAF AMD
KGRR 230947Z 2310/2406 00000KT 1/4SM FG VV001
     FM231400 14004KT 3SM BR BKN008
     FM231530 15005KT P6SM SCT015
     FM240400 19004KT P6SM -SHRA OVC040=

USA.gov is the U.S. government's official web portal to all federal, state and local government web resources and services.